Aviation Digital Data Service (ADDS)

Output produced by METARs form (1553 UTC 30 October 2014)
found at http://www.aviationweather.gov/adds/metars/
 
KORD 301407Z 3014/3118 21006KT P6SM SCT120 BKN250 
     FM301900 24007KT P6SM SCT040 BKN100 
     FM302300 26005KT P6SM SCT035 OVC060 
     FM310400 30010KT P6SM VCSH BKN012 OVC025 
     FM310900 33014G24KT P6SM SCT012 BKN035 
     FM311400 35024G35KT P6SM SCT035